Time;durP1;ratioP1;P1;durP2;ratioP2;P2;SDS_P1;SDS_P2;PMS_P1;PMS_P2;Temp;Humidity;BMP_temperature;BMP_pressure;BME280_temperature;BME280_humidity;BME280_pressure;Samples;Min_cycle;Max_cycle;Signal;HPM_P1;HPM_P2
2023/06/24 00:02:16;;;;;;;6.20;4.33;;;;;;;20.42;52.77;100227.09;4946736;28;20331;-76
2023/06/24 00:04:42;;;;;;;6.93;5.13;;;;;;;20.38;52.86;100233.69;4958287;28;20269;-76
2023/06/24 00:07:07;;;;;;;5.13;3.87;;;;;;;20.31;53.11;100233.44;4954062;28;20211;-76
2023/06/24 00:09:33;;;;;;;5.73;4.50;;;;;;;20.27;53.38;100229.38;4956848;28;20210;-76
2023/06/24 00:11:59;;;;;;;5.93;4.90;;;;;;;20.14;53.81;100242.19;4956389;28;20939;-76
2023/06/24 00:14:26;;;;;;;5.23;4.70;;;;;;;19.99;54.27;100239.97;4952969;28;20250;-74
2023/06/24 00:16:53;;;;;;;4.23;3.80;;;;;;;19.86;54.75;100244.75;4957587;28;20509;-74
2023/06/24 00:19:20;;;;;;;5.97;5.13;;;;;;;19.74;55.12;100244.09;4956227;28;20561;-76
2023/06/24 00:21:46;;;;;;;5.70;4.77;;;;;;;19.62;55.62;100238.00;4956914;28;20495;-77
2023/06/24 00:24:11;;;;;;;4.97;3.83;;;;;;;19.53;56.03;100238.03;4954369;28;20490;-76
2023/06/24 00:26:37;;;;;;;5.03;4.50;;;;;;;19.50;56.25;100233.81;4953000;28;20507;-76
2023/06/24 00:29:02;;;;;;;7.07;5.00;;;;;;;19.49;56.17;100236.59;4952599;28;20217;-76
2023/06/24 00:31:28;;;;;;;8.90;4.77;;;;;;;19.48;56.38;100238.44;4941457;28;20783;-76
2023/06/24 00:33:53;;;;;;;6.70;4.00;;;;;;;19.48;56.33;100237.59;4956451;28;20212;-76
2023/06/24 00:36:19;;;;;;;5.60;4.03;;;;;;;19.51;56.10;100227.50;4955925;28;20225;-76
2023/06/24 00:38:44;;;;;;;4.60;4.10;;;;;;;19.54;55.79;100235.19;4958086;28;20252;-76
2023/06/24 00:41:09;;;;;;;4.27;3.80;;;;;;;19.54;55.90;100235.19;4953433;28;20313;-76
2023/06/24 00:43:39;;;;;;;6.67;5.00;;;;;;;19.51;55.89;100234.66;4955041;28;20227;-76
2023/06/24 00:46:06;;;;;;;5.73;4.23;;;;;;;19.45;55.71;100242.22;4940865;28;20462;-76
2023/06/24 00:48:31;;;;;;;5.40;5.00;;;;;;;19.45;55.93;100238.72;4951429;28;20749;-76
2023/06/24 00:50:58;;;;;;;6.03;5.10;;;;;;;19.44;55.84;100239.66;4955397;28;20493;-76
2023/06/24 00:53:25;;;;;;;5.17;4.27;;;;;;;19.43;56.03;100244.16;4925166;28;20730;-76
2023/06/24 00:55:52;;;;;;;7.50;4.83;;;;;;;19.33;56.38;100237.97;4956020;28;20471;-76
2023/06/24 00:58:20;;;;;;;7.40;4.20;;;;;;;19.20;56.99;100248.09;4938090;28;20382;-76
2023/06/24 01:00:48;;;;;;;5.37;4.87;;;;;;;19.03;57.62;100246.91;4955260;28;21130;-76
2023/06/24 01:03:14;;;;;;;7.60;4.90;;;;;;;18.90;58.12;100249.84;4958028;28;20476;-76
2023/06/24 01:05:40;;;;;;;4.77;4.30;;;;;;;18.79;58.51;100248.13;4957704;28;20545;-76
2023/06/24 01:08:06;;;;;;;5.80;4.23;;;;;;;18.69;58.63;100252.53;4941089;28;20222;-76
2023/06/24 01:10:32;;;;;;;4.63;4.10;;;;;;;18.60;59.05;100252.47;4959162;28;20480;-76
2023/06/24 01:12:58;;;;;;;7.97;5.03;;;;;;;18.50;59.47;100255.09;4961338;28;20224;-76
2023/06/24 01:15:28;;;;;;;6.13;4.90;;;;;;;18.39;59.67;100253.38;4959820;28;20781;-76
2023/06/24 01:18:02;;;;;;;6.03;3.90;;;;;;;18.32;60.33;100262.84;4941460;28;20221;-76
2023/06/24 01:21:05;;;;;;;5.80;4.23;;;;;;;18.23;60.49;100267.13;4960464;28;21068;-76
2023/06/24 01:24:09;;;;;;;6.20;5.20;;;;;;;18.21;60.39;100260.25;4880113;29;20521;-76
2023/06/24 01:27:01;;;;;;;6.80;4.67;;;;;;;18.14;60.41;100267.91;4960128;28;20566;-76
2023/06/24 01:29:44;;;;;;;5.23;4.57;;;;;;;18.11;60.53;100265.50;4946442;28;20483;-76
2023/06/24 01:32:21;;;;;;;6.13;4.77;;;;;;;18.03;60.97;100260.81;4961434;28;20983;-76
2023/06/24 01:34:57;;;;;;;5.57;4.43;;;;;;;17.96;61.15;100266.78;4957212;28;20469;-76
2023/06/24 01:37:31;;;;;;;5.20;4.53;;;;;;;17.87;61.20;100269.25;4959199;28;20225;-76
2023/06/24 01:40:00;;;;;;;8.70;6.13;;;;;;;17.80;61.49;100262.78;4942054;28;20501;-76
2023/06/24 01:42:30;;;;;;;4.03;3.63;;;;;;;17.73;61.63;100264.22;4957810;28;20494;-76
2023/06/24 01:44:56;;;;;;;10.17;5.27;;;;;;;17.67;62.01;100268.22;4942276;28;21097;-76
2023/06/24 01:47:26;;;;;;;5.97;5.37;;;;;;;17.63;62.14;100264.16;4959788;28;20489;-76
2023/06/24 01:49:54;;;;;;;8.77;5.20;;;;;;;17.65;62.12;100267.50;4958577;28;20469;-76
2023/06/24 01:52:23;;;;;;;7.53;5.40;;;;;;;17.70;62.02;100267.97;4955371;28;21028;-76
2023/06/24 01:54:50;;;;;;;5.20;4.70;;;;;;;17.73;61.72;100272.19;4959261;28;20474;-76
2023/06/24 01:57:18;;;;;;;6.03;5.30;;;;;;;17.76;61.68;100271.09;4941586;28;20525;-76
2023/06/24 01:59:45;;;;;;;6.63;4.97;;;;;;;17.84;61.60;100263.34;4958844;28;20479;-76
2023/06/24 02:02:13;;;;;;;6.70;4.77;;;;;;;17.90;61.46;100271.66;4932120;28;20585;-76
2023/06/24 02:04:39;;;;;;;5.23;4.60;;;;;;;17.98;61.36;100275.47;4939173;28;20472;-76
2023/06/24 02:07:06;;;;;;;5.70;4.53;;;;;;;18.05;61.31;100272.19;4959184;28;20487;-76
2023/06/24 02:09:33;;;;;;;7.43;5.57;;;;;;;18.10;61.04;100261.16;4959560;28;20490;-76
2023/06/24 02:12:01;;;;;;;5.93;5.20;;;;;;;18.14;61.23;100260.75;4941395;28;20999;-76
2023/06/24 02:14:28;;;;;;;9.53;5.70;;;;;;;18.18;60.97;100261.34;4941269;28;20473;-76
2023/06/24 02:16:57;;;;;;;7.23;5.03;;;;;;;18.18;60.94;100261.34;4961214;28;20468;-76
2023/06/24 02:19:29;;;;;;;4.83;4.37;;;;;;;18.18;60.82;100264.00;4955357;28;20579;-76
2023/06/24 02:21:59;;;;;;;6.87;4.90;;;;;;;18.16;61.08;100268.63;4942486;28;20542;-76
2023/06/24 02:24:26;;;;;;;6.30;5.40;;;;;;;18.16;61.10;100263.28;4957654;28;20478;-76
2023/06/24 02:26:52;;;;;;;5.90;4.67;;;;;;;18.17;61.35;100266.78;4940033;28;20578;-76
2023/06/24 02:29:18;;;;;;;6.70;4.30;;;;;;;18.15;61.24;100261.63;4958200;28;20795;-76
2023/06/24 02:31:44;;;;;;;6.47;5.13;;;;;;;18.13;61.33;100264.41;4959801;28;20906;-76
2023/06/24 02:34:09;;;;;;;6.20;5.17;;;;;;;18.08;61.45;100268.44;4951059;28;20340;-76
2023/06/24 02:36:35;;;;;;;8.63;5.50;;;;;;;18.04;62.63;100272.31;4936920;28;20454;-76
2023/06/24 02:39:02;;;;;;;5.00;4.50;;;;;;;17.99;62.52;100275.38;4957231;28;20487;-76
2023/06/24 02:41:27;;;;;;;6.67;5.17;;;;;;;17.91;62.46;100278.66;4957804;28;20482;-76
2023/06/24 02:43:53;;;;;;;7.00;4.53;;;;;;;17.81;62.91;100280.41;4937637;28;20313;-76
2023/06/24 02:46:20;;;;;;;7.80;5.60;;;;;;;17.71;63.11;100279.44;4933134;28;20236;-76
2023/06/24 02:48:48;;;;;;;5.67;4.60;;;;;;;17.61;63.01;100276.72;4935240;28;20233;-76
2023/06/24 02:51:13;;;;;;;8.70;5.00;;;;;;;17.59;63.07;100275.16;4938914;28;20549;-76
2023/06/24 02:53:40;;;;;;;5.90;4.80;;;;;;;17.61;62.86;100284.69;4939165;28;20486;-76
2023/06/24 02:56:09;;;;;;;5.17;4.63;;;;;;;17.65;62.76;100277.28;4938350;28;20899;-76
2023/06/24 02:58:38;;;;;;;7.90;5.10;;;;;;;17.68;62.72;100279.69;4940487;28;20481;-76
2023/06/24 03:01:09;;;;;;;5.93;5.33;;;;;;;17.71;62.70;100274.13;4948905;28;20472;-76
2023/06/24 03:03:49;;;;;;;6.83;4.60;;;;;;;17.76;62.55;100277.25;4936550;28;20464;-77
2023/06/24 03:06:17;;;;;;;6.47;5.87;;;;;;;17.79;62.20;100277.00;4941148;28;20491;-77
2023/06/24 03:08:44;;;;;;;7.07;6.40;;;;;;;17.76;62.40;100276.41;4939887;28;20469;-77
2023/06/24 03:11:13;;;;;;;9.90;5.00;;;;;;;17.74;62.41;100286.31;4941235;28;20784;-77
2023/06/24 03:13:39;;;;;;;4.93;4.40;;;;;;;17.75;62.49;100286.19;4941129;28;20554;-77
2023/06/24 03:16:13;;;;;;;9.50;5.43;;;;;;;17.75;62.57;100286.19;4944121;28;21005;-77
2023/06/24 03:19:08;;;;;;;6.30;4.70;;;;;;;17.71;62.74;100284.75;4945268;28;20579;-77
2023/06/24 03:21:34;;;;;;;5.80;5.20;;;;;;;17.66;62.66;100284.28;4937273;28;20705;-77
2023/06/24 03:24:06;;;;;;;6.07;5.03;;;;;;;17.56;63.04;100297.50;4939100;28;20634;-77
2023/06/24 03:26:35;;;;;;;5.07;4.60;;;;;;;17.44;63.11;100298.47;4935839;28;21055;-78
2023/06/24 03:29:01;;;;;;;5.80;4.47;;;;;;;17.31;63.71;100306.63;4939672;28;20725;-77
2023/06/24 03:31:27;;;;;;;6.07;5.47;;;;;;;17.18;63.91;100298.78;4959495;28;20214;-77
2023/06/24 03:33:52;;;;;;;8.40;6.10;;;;;;;17.08;64.16;100304.94;4934955;28;20622;-77
2023/06/24 03:36:19;;;;;;;7.00;6.30;;;;;;;16.96;64.72;100304.13;4937941;28;20445;-77
2023/06/24 03:38:45;;;;;;;7.75;5.03;;;;;;;16.83;64.97;100304.25;4939744;28;20362;-77
2023/06/24 03:41:10;;;;;;;5.80;5.07;;;;;;;16.75;65.12;100304.81;4939832;28;20319;-77
2023/06/24 03:43:37;;;;;;;6.78;5.07;;;;;;;16.73;65.08;100304.06;4942509;28;20260;-77
2023/06/24 03:46:02;;;;;;;6.70;6.10;;;;;;;16.78;64.95;100296.63;4957323;28;20230;-77
2023/06/24 03:48:28;;;;;;;6.43;4.60;;;;;;;16.83;64.80;100300.75;4938586;28;20558;-76
2023/06/24 03:50:54;;;;;;;4.90;4.27;;;;;;;16.87;64.71;100305.69;4937690;28;20628;-77
2023/06/24 03:53:20;;;;;;;6.47;5.50;;;;;;;16.92;64.45;100298.19;4938930;28;20417;-77
2023/06/24 03:55:45;;;;;;;8.30;6.10;;;;;;;16.98;64.37;100304.81;4938793;28;20249;-76
2023/06/24 03:58:13;;;;;;;5.47;4.97;;;;;;;17.00;64.15;100309.06;4932055;28;20224;-77
2023/06/24 04:00:40;;;;;;;9.38;6.22;;;;;;;17.06;63.97;100307.72;4941524;28;20792;-77
2023/06/24 04:03:07;;;;;;;6.20;5.70;;;;;;;17.11;64.03;100317.97;4930742;28;20239;-77
2023/06/24 04:05:33;;;;;;;5.68;5.13;;;;;;;17.17;63.89;100314.81;4956088;28;20444;-76
2023/06/24 04:07:58;;;;;;;5.70;4.77;;;;;;;17.15;63.98;100317.63;4953148;28;20470;-77
2023/06/24 04:10:24;;;;;;;7.27;5.10;;;;;;;17.12;63.96;100317.00;4938481;28;21126;-77
2023/06/24 04:12:50;;;;;;;5.80;5.27;;;;;;;17.12;63.92;100312.56;4954224;28;20492;-77
2023/06/24 04:15:16;;;;;;;9.50;4.90;;;;;;;17.15;63.95;100314.13;4941605;28;20615;-77
2023/06/24 04:17:41;;;;;;;7.20;4.80;;;;;;;17.16;63.83;100311.34;4935990;28;20562;-77
2023/06/24 04:20:08;;;;;;;5.70;4.53;;;;;;;17.18;63.92;100308.56;4937316;28;20316;-77
2023/06/24 04:22:35;;;;;;;7.35;5.80;;;;;;;17.16;64.00;100306.03;4937905;28;20491;-77
2023/06/24 04:25:01;;;;;;;7.13;5.30;;;;;;;17.22;64.06;100310.00;4955345;28;20437;-77
2023/06/24 04:27:26;;;;;;;5.03;4.53;;;;;;;17.32;63.76;100318.06;4935143;28;20571;-77
2023/06/24 04:29:52;;;;;;;5.67;4.30;;;;;;;17.41;63.34;100310.19;4941328;28;20319;-77
2023/06/24 04:32:17;;;;;;;6.13;5.10;;;;;;;17.44;63.61;100323.25;4956375;28;20271;-77
2023/06/24 04:34:42;;;;;;;7.43;5.53;;;;;;;17.40;63.47;100313.81;4955646;28;20191;-77
2023/06/24 04:37:08;;;;;;;7.23;5.07;;;;;;;17.33;63.79;100314.44;4953357;28;20229;-77
2023/06/24 04:39:33;;;;;;;5.37;4.10;;;;;;;17.26;63.78;100322.06;4955903;28;20717;-77
2023/06/24 04:41:59;;;;;;;8.30;5.60;;;;;;;17.23;64.00;100327.63;4954987;28;20227;-77
2023/06/24 04:44:25;;;;;;;6.30;4.90;;;;;;;17.24;63.84;100337.28;4957560;28;20217;-77
2023/06/24 04:46:52;;;;;;;8.57;5.73;;;;;;;17.31;63.67;100332.31;4951007;28;20234;-77
2023/06/24 04:49:18;;;;;;;7.75;4.95;;;;;;;17.50;63.33;100327.22;4957536;28;20699;-77
2023/06/24 04:51:43;;;;;;;10.67;5.20;;;;;;;17.86;62.25;100330.50;4954575;28;20214;-77
2023/06/24 04:54:09;;;;;;;6.63;5.13;;;;;;;18.32;61.29;100335.47;4950481;28;20285;-77
2023/06/24 04:56:34;;;;;;;7.63;4.57;;;;;;;18.87;59.84;100323.78;4946390;28;20632;-77
2023/06/24 04:59:00;;;;;;;5.17;4.10;;;;;;;19.40;58.41;100321.72;4949309;28;20244;-78
2023/06/24 05:01:26;;;;;;;4.40;4.00;;;;;;;19.98;57.02;100317.44;4949787;28;20227;-78
2023/06/24 05:03:51;;;;;;;6.50;4.90;;;;;;;20.53;55.47;100315.84;4946953;28;20481;-77
2023/06/24 05:06:17;;;;;;;6.13;4.72;;;;;;;21.09;53.46;100313.25;4954664;28;20454;-77
2023/06/24 05:08:42;;;;;;;5.90;4.80;;;;;;;21.58;52.33;100309.34;4956314;28;20221;-77
2023/06/24 05:11:07;;;;;;;4.60;4.07;;;;;;;22.02;50.86;100317.44;4956075;28;20225;-78
2023/06/24 05:13:33;;;;;;;6.03;5.20;;;;;;;22.31;49.91;100319.88;4956337;28;20418;-77
2023/06/24 05:15:58;;;;;;;5.10;3.63;;;;;;;22.58;49.31;100315.38;4954999;28;20221;-77
2023/06/24 05:18:23;;;;;;;6.50;4.80;;;;;;;22.86;48.44;100320.53;4954838;28;20354;-77
2023/06/24 05:20:49;;;;;;;7.10;5.20;;;;;;;23.04;47.70;100317.81;4956673;28;20214;-77
2023/06/24 05:23:15;;;;;;;6.60;4.10;;;;;;;23.37;46.96;100311.56;4955876;28;20535;-77
2023/06/24 05:25:40;;;;;;;4.23;3.83;;;;;;;23.69;45.97;100319.84;4956653;28;20225;-77
2023/06/24 05:28:05;;;;;;;5.33;3.57;;;;;;;24.01;45.18;100325.28;4952952;28;20223;-76
2023/06/24 05:30:31;;;;;;;6.97;4.23;;;;;;;24.37;44.46;100324.06;4956592;28;20344;-75
2023/06/24 05:32:56;;;;;;;4.70;4.23;;;;;;;24.73;43.66;100319.16;4954190;28;20285;-75
2023/06/24 05:35:21;;;;;;;5.03;4.53;;;;;;;25.00;42.80;100317.06;4954142;28;20209;-75
2023/06/24 05:37:47;;;;;;;4.60;4.20;;;;;;;25.18;41.74;100315.00;4954445;28;20596;-75
2023/06/24 05:40:13;;;;;;;5.07;4.10;;;;;;;25.28;41.82;100312.94;4953280;28;20204;-75
2023/06/24 05:42:38;;;;;;;5.77;4.33;;;;;;;25.49;41.56;100317.72;4954335;28;20445;-75
2023/06/24 05:45:06;;;;;;;5.40;3.70;;;;;;;25.74;41.41;100321.06;4956131;28;20448;-75
2023/06/24 05:47:32;;;;;;;4.43;4.03;;;;;;;26.03;40.52;100315.00;4954461;28;20288;-75
2023/06/24 05:49:58;;;;;;;4.20;3.77;;;;;;;26.24;39.79;100311.59;4957595;28;21103;-76
2023/06/24 05:52:23;;;;;;;5.30;4.63;;;;;;;26.43;39.56;100318.31;4939315;28;21192;-75
2023/06/24 05:54:49;;;;;;;5.00;4.50;;;;;;;26.41;39.24;100314.13;4957467;28;20512;-76
2023/06/24 05:57:14;;;;;;;5.23;4.40;;;;;;;26.34;39.02;100327.50;4957034;28;20222;-75
2023/06/24 05:59:39;;;;;;;6.57;4.63;;;;;;;26.49;38.87;100320.31;4958430;28;20233;-75
2023/06/24 06:02:05;;;;;;;5.03;4.53;;;;;;;26.72;38.76;100327.50;4958807;28;20554;-75
2023/06/24 06:04:30;;;;;;;5.53;4.23;;;;;;;26.90;37.84;100325.28;4943763;28;20309;-75
2023/06/24 06:06:56;;;;;;;5.87;4.47;;;;;;;26.97;37.78;100322.66;4956711;28;20221;-75
2023/06/24 06:09:22;;;;;;;4.47;3.70;;;;;;;27.09;37.90;100312.25;4957427;28;20274;-75
2023/06/24 06:11:47;;;;;;;4.53;4.10;;;;;;;27.24;37.37;100315.75;4957748;28;20211;-75
2023/06/24 06:14:13;;;;;;;6.60;4.47;;;;;;;27.55;37.20;100320.91;4957172;28;20501;-75
2023/06/24 06:16:38;;;;;;;10.47;5.30;;;;;;;27.86;36.36;100330.59;4960330;28;20242;-75
2023/06/24 06:19:04;;;;;;;6.00;5.40;;;;;;;28.09;36.23;100319.59;4957285;28;20301;-76
2023/06/24 06:21:29;;;;;;;4.50;4.10;;;;;;;28.19;35.74;100314.69;4959145;28;20676;-76
2023/06/24 06:23:55;;;;;;;4.03;3.70;;;;;;;28.34;35.14;100317.28;4959217;28;20687;-75
2023/06/24 06:26:21;;;;;;;4.50;4.10;;;;;;;28.56;34.63;100309.16;4960950;28;20247;-76
2023/06/24 06:28:47;;;;;;;3.67;3.37;;;;;;;28.87;34.09;100309.56;4954961;28;20212;-75
2023/06/24 06:31:13;;;;;;;3.93;3.47;;;;;;;29.15;33.50;100307.84;4958349;28;20840;-75
2023/06/24 06:33:39;;;;;;;5.07;4.13;;;;;;;29.34;33.48;100310.63;4959774;28;20681;-76
2023/06/24 06:36:04;;;;;;;4.73;4.30;;;;;;;29.34;32.52;100313.31;4956793;28;20862;-75
2023/06/24 06:38:31;;;;;;;5.00;4.30;;;;;;;29.34;32.29;100298.97;4956929;28;20289;-76
2023/06/24 06:40:57;;;;;;;4.63;4.23;;;;;;;29.45;32.31;100308.38;4958646;28;20201;-76
2023/06/24 06:43:22;;;;;;;5.00;4.27;;;;;;;29.49;32.36;100312.34;4956168;28;20491;-76
2023/06/24 06:45:48;;;;;;;4.57;3.80;;;;;;;29.62;32.04;100304.22;4957987;28;20557;-76
2023/06/24 06:48:13;;;;;;;4.07;3.23;;;;;;;29.94;31.83;100307.22;4959411;28;20213;-76
2023/06/24 06:50:39;;;;;;;4.30;3.90;;;;;;;30.20;31.51;100304.53;4957146;28;20582;-75
2023/06/24 06:53:04;;;;;;;4.57;4.03;;;;;;;30.33;31.69;100305.59;4959301;28;20221;-76
2023/06/24 06:55:29;;;;;;;3.77;3.47;;;;;;;30.33;30.75;100303.72;4959090;28;20215;-75
2023/06/24 06:57:55;;;;;;;4.43;4.03;;;;;;;30.40;30.44;100299.09;4959644;28;20201;-75
2023/06/24 07:00:21;;;;;;;4.17;3.77;;;;;;;30.64;30.33;100294.88;4954481;28;20207;-76
2023/06/24 07:02:46;;;;;;;7.23;4.30;;;;;;;30.83;30.07;100286.94;4976044;23;20739;-80
2023/06/24 07:05:11;;;;;;;3.87;3.50;;;;;;;31.04;30.19;100293.97;4961509;28;20190;-80
2023/06/24 07:07:38;;;;;;;5.50;4.10;;;;;;;31.00;29.77;100288.16;4965781;28;20225;-80
2023/06/24 07:10:04;;;;;;;3.90;3.57;;;;;;;30.91;29.86;100288.59;4974102;28;20244;-79
2023/06/24 07:12:30;;;;;;;3.73;3.33;;;;;;;31.02;29.63;100291.47;4965065;28;20593;-80
2023/06/24 07:14:56;;;;;;;5.60;4.13;;;;;;;31.16;29.70;100288.69;4968963;28;21034;-80
2023/06/24 07:17:21;;;;;;;6.70;4.17;;;;;;;31.24;29.68;100280.28;4965968;28;20464;-80
2023/06/24 07:19:47;;;;;;;3.50;3.20;;;;;;;31.44;29.52;100280.25;4963517;28;20194;-80
2023/06/24 07:22:13;;;;;;;5.00;3.87;;;;;;;31.68;29.15;100279.44;4964975;28;20217;-80
2023/06/24 07:24:38;;;;;;;8.03;3.77;;;;;;;31.88;28.53;100279.28;4963238;28;20325;-80
2023/06/24 07:27:04;;;;;;;4.10;3.70;;;;;;;32.03;28.01;100281.72;4962925;28;20575;-81
2023/06/24 07:29:29;;;;;;;4.73;3.70;;;;;;;32.24;27.90;100285.06;4958277;28;20222;-79
2023/06/24 07:31:55;;;;;;;4.20;3.73;;;;;;;32.24;27.86;100272.31;4956810;28;20212;-79
2023/06/24 07:34:20;;;;;;;4.37;4.00;;;;;;;32.20;27.92;100273.00;4958998;28;20201;-79
2023/06/24 07:36:46;;;;;;;4.57;4.10;;;;;;;32.17;27.69;100271.56;4950093;28;20499;-80
2023/06/24 07:39:11;;;;;;;4.60;4.20;;;;;;;32.21;27.64;100270.03;4957809;28;20453;-80
2023/06/24 07:41:36;;;;;;;6.47;4.40;;;;;;;32.29;27.16;100267.03;4958504;28;20203;-80
2023/06/24 07:44:02;;;;;;;4.47;4.07;;;;;;;32.36;27.32;100270.53;4955765;28;22545;-80
2023/06/24 07:46:27;;;;;;;4.97;4.47;;;;;;;32.49;27.20;100268.78;4959638;28;20765;-81
2023/06/24 07:48:53;;;;;;;3.73;3.43;;;;;;;32.51;26.93;100269.34;4960289;28;20831;-81
2023/06/24 07:51:19;;;;;;;4.37;3.97;;;;;;;32.55;27.27;100267.88;4959735;28;20554;-80
2023/06/24 07:53:44;;;;;;;3.93;3.63;;;;;;;32.48;27.34;100273.34;4959288;28;20223;-81
2023/06/24 07:56:10;;;;;;;4.20;3.80;;;;;;;32.45;27.21;100270.22;4960929;28;20199;-79
2023/06/24 07:58:37;;;;;;;3.73;3.30;;;;;;;32.49;27.38;100264.16;4960298;28;20220;-79
2023/06/24 08:01:03;;;;;;;4.63;3.60;;;;;;;32.48;27.26;100267.91;4959128;28;20360;-81
2023/06/24 08:03:29;;;;;;;3.63;3.33;;;;;;;32.46;27.53;100259.16;4954846;28;21114;-80
2023/06/24 08:05:54;;;;;;;4.20;3.80;;;;;;;32.38;27.71;100256.72;4959116;28;20464;-80
2023/06/24 08:08:20;;;;;;;7.20;4.47;;;;;;;32.21;28.05;100252.91;4960737;28;20221;-79
2023/06/24 08:10:46;;;;;;;4.60;4.20;;;;;;;32.07;28.34;100254.91;4956950;28;20209;-81
2023/06/24 08:13:11;;;;;;;3.73;3.37;;;;;;;32.03;29.10;100250.97;4958572;28;20304;-81
2023/06/24 08:15:36;;;;;;;5.40;4.23;;;;;;;31.96;29.12;100246.44;4961063;28;20205;-80
2023/06/24 08:18:02;;;;;;;3.60;3.30;;;;;;;31.86;29.50;100246.06;4958472;28;20708;-79
2023/06/24 08:20:27;;;;;;;3.90;3.47;;;;;;;31.79;29.18;100242.59;4958341;28;20256;-79
2023/06/24 08:22:53;;;;;;;4.20;3.80;;;;;;;31.55;30.01;100236.09;4957884;28;20573;-79
2023/06/24 08:25:18;;;;;;;5.10;4.17;;;;;;;31.34;30.15;100231.81;4961874;28;20236;-81
2023/06/24 08:27:46;;;;;;;5.40;4.27;;;;;;;31.23;30.50;100227.06;4962586;28;20289;-80
2023/06/24 08:30:12;;;;;;;3.73;3.43;;;;;;;31.14;30.59;100234.66;4960683;28;20216;-80
2023/06/24 08:32:38;;;;;;;4.93;3.90;;;;;;;31.01;30.62;100232.81;4957142;28;20467;-79
2023/06/24 08:35:04;;;;;;;4.50;3.90;;;;;;;30.86;31.19;100227.66;4958851;28;20526;-79
2023/06/24 08:37:29;;;;;;;4.20;3.90;;;;;;;30.82;31.38;100229.16;4958347;28;20218;-79
2023/06/24 08:39:55;;;;;;;5.50;3.93;;;;;;;30.75;31.17;100220.19;4959634;28;20460;-79
2023/06/24 08:42:20;;;;;;;4.90;4.37;;;;;;;30.73;31.31;100222.28;4960357;28;20303;-79
2023/06/24 08:44:45;;;;;;;3.77;3.47;;;;;;;30.81;31.16;100222.09;4961354;28;20529;-81
2023/06/24 08:47:11;;;;;;;3.83;3.47;;;;;;;30.95;30.89;100213.88;4954114;28;20582;-80
2023/06/24 08:49:48;;;;;;;5.80;3.50;;;;;;;31.03;30.61;100213.63;4954680;28;20604;-81
2023/06/24 08:52:16;;;;;;;5.13;4.50;;;;;;;31.14;30.79;100215.66;4958909;28;20464;-80
2023/06/24 08:54:45;;;;;;;6.07;3.90;;;;;;;31.12;30.89;100215.03;4959932;28;20486;-82
2023/06/24 08:57:14;;;;;;;5.07;4.57;;;;;;;30.92;30.43;100220.56;4961892;28;20439;-81
2023/06/24 08:59:41;;;;;;;3.23;3.03;;;;;;;30.70;30.56;100221.88;4961668;28;21060;-80
2023/06/24 09:02:07;;;;;;;7.60;4.40;;;;;;;30.63;30.88;100213.78;4960094;28;20801;-80
2023/06/24 09:04:32;;;;;;;5.63;4.07;;;;;;;30.78;30.28;100210.78;4961476;28;20479;-81
2023/06/24 09:06:58;;;;;;;4.90;3.63;;;;;;;30.88;30.70;100221.22;4963664;28;20212;-80
2023/06/24 09:09:24;;;;;;;4.20;3.90;;;;;;;30.93;30.47;100205.94;4962678;28;20219;-81
2023/06/24 09:11:58;;;;;;;6.20;4.20;;;;;;;31.12;30.35;100195.22;4959890;28;20195;-81
2023/06/24 09:14:25;;;;;;;3.60;3.30;;;;;;;31.18;30.21;100202.47;4955668;28;20462;-81
2023/06/24 09:16:54;;;;;;;6.80;4.33;;;;;;;31.31;30.02;100200.50;4958957;28;20505;-82
2023/06/24 09:19:22;;;;;;;6.33;3.80;;;;;;;31.49;29.95;100196.25;4960488;28;20468;-82
2023/06/24 09:21:48;;;;;;;4.00;3.70;;;;;;;31.64;29.52;100187.75;4959731;28;20464;-80
2023/06/24 09:24:16;;;;;;;3.60;3.30;;;;;;;31.78;29.53;100185.75;4959960;28;20470;-80
2023/06/24 09:26:44;;;;;;;6.07;3.83;;;;;;;31.63;28.62;100183.41;4963226;28;20947;-81
2023/06/24 09:29:10;;;;;;;5.15;3.58;;;;;;;31.49;29.15;100172.63;4961278;28;20443;-81
2023/06/24 09:31:46;;;;;;;4.97;4.57;;;;;;;31.56;29.08;100178.00;4962256;28;20213;-81
2023/06/24 09:34:15;;;;;;;4.87;4.30;;;;;;;31.57;29.30;100167.97;4948903;28;20826;-81
2023/06/24 09:36:45;;;;;;;4.30;3.90;;;;;;;31.65;28.89;100167.69;4963257;28;20465;-82
2023/06/24 09:39:11;;;;;;;4.77;4.30;;;;;;;31.71;29.00;100159.50;4964514;28;20986;-81
2023/06/24 09:41:40;;;;;;;4.30;3.90;;;;;;;31.79;29.50;100169.25;4963169;28;20471;-81
2023/06/24 09:44:10;;;;;;;4.03;3.70;;;;;;;31.83;28.98;100170.44;4961175;28;20213;-83
2023/06/24 09:46:37;;;;;;;4.77;4.27;;;;;;;31.78;28.63;100164.84;4962123;28;20537;-81
2023/06/24 09:49:06;;;;;;;4.63;4.23;;;;;;;31.74;28.85;100155.50;4962646;28;21217;-82
2023/06/24 09:51:38;;;;;;;4.77;4.20;;;;;;;31.66;29.22;100151.19;4962325;28;20471;-83
2023/06/24 09:54:08;;;;;;;4.63;4.10;;;;;;;31.57;29.01;100154.38;4961006;28;20573;-82
2023/06/24 09:56:37;;;;;;;4.43;4.03;;;;;;;31.64;29.10;100144.31;4959179;28;20482;-79
2023/06/24 09:59:06;;;;;;;4.53;3.97;;;;;;;31.74;28.94;100148.19;4961701;28;21003;-80
2023/06/24 10:01:36;;;;;;;4.20;3.43;;;;;;;31.81;28.78;100150.00;4962603;28;21057;-80
2023/06/24 10:04:03;;;;;;;7.27;4.00;;;;;;;31.77;28.53;100149.63;4960001;28;20494;-81
2023/06/24 10:06:29;;;;;;;7.43;4.30;;;;;;;31.62;28.66;100132.81;4961492;28;20491;-82
2023/06/24 10:08:55;;;;;;;4.73;4.23;;;;;;;31.54;28.73;100136.66;4962552;28;20558;-82
2023/06/24 10:11:21;;;;;;;4.70;4.30;;;;;;;31.55;28.77;100132.91;4963447;28;21078;-82
2023/06/24 10:13:46;;;;;;;7.60;5.03;;;;;;;31.67;29.09;100133.81;4960378;28;20473;-80
2023/06/24 10:16:12;;;;;;;5.03;4.03;;;;;;;31.78;29.02;100126.81;4959262;28;20295;-80
2023/06/24 10:18:39;;;;;;;7.87;5.60;;;;;;;31.84;28.32;100131.38;4963383;28;20511;-81
2023/06/24 10:21:06;;;;;;;7.10;4.93;;;;;;;31.81;28.33;100118.25;4963204;28;20568;-82
2023/06/24 10:23:47;;;;;;;4.80;4.50;;;;;;;31.81;28.31;100123.69;4961490;28;20960;-81
2023/06/24 10:26:25;;;;;;;4.23;3.83;;;;;;;31.89;28.27;100112.53;4961121;28;20492;-81
2023/06/24 10:29:06;;;;;;;4.13;3.83;;;;;;;31.96;28.13;100107.84;4959392;28;20579;-79
2023/06/24 10:31:50;;;;;;;4.93;3.97;;;;;;;32.15;27.92;100107.88;4959302;28;20453;-82
2023/06/24 10:34:43;;;;;;;4.57;3.50;;;;;;;32.35;26.74;100092.16;4962291;28;21163;-83
2023/06/24 10:37:20;;;;;;;3.83;3.53;;;;;;;32.41;26.66;100098.56;4958290;28;20507;-82
2023/06/24 10:39:52;;;;;;;3.37;2.97;;;;;;;32.38;25.96;100096.31;4958474;28;21064;-82
2023/06/24 10:42:26;;;;;;;5.33;3.70;;;;;;;32.34;25.66;100092.38;4959303;28;20700;-81
2023/06/24 10:44:53;;;;;;;4.03;3.47;;;;;;;32.32;25.53;100099.91;4961143;28;20454;-82
2023/06/24 10:47:19;;;;;;;5.23;3.57;;;;;;;32.11;25.15;100090.38;4959611;28;20485;-82
2023/06/24 10:49:45;;;;;;;4.07;3.67;;;;;;;31.88;25.20;100085.56;4960174;28;20473;-82
2023/06/24 10:52:12;;;;;;;3.73;3.43;;;;;;;31.88;25.68;100089.09;4962435;28;20208;-80
2023/06/24 10:54:38;;;;;;;3.60;3.30;;;;;;;32.00;25.42;100081.09;4959657;28;20465;-81
2023/06/24 10:57:08;;;;;;;4.73;2.97;;;;;;;32.14;25.01;100066.28;4963406;28;20455;-80
2023/06/24 10:59:39;;;;;;;4.00;3.63;;;;;;;32.29;24.60;100068.59;4973794;28;20495;-79
2023/06/24 11:02:12;;;;;;;4.17;3.87;;;;;;;32.38;23.93;100064.50;4979276;28;20459;-78
2023/06/24 11:04:48;;;;;;;3.47;3.17;;;;;;;32.45;23.89;100052.69;4981284;28;20995;-79
2023/06/24 11:07:16;;;;;;;4.03;3.30;;;;;;;32.45;23.77;100049.97;4975164;28;20486;-77
2023/06/24 11:09:42;;;;;;;4.53;3.73;;;;;;;32.48;23.91;100041.38;4961808;28;20476;-79
2023/06/24 11:12:09;;;;;;;4.30;3.30;;;;;;;32.48;23.62;100044.09;4971394;28;20462;-78
2023/06/24 11:14:35;;;;;;;3.80;3.23;;;;;;;32.53;23.98;100041.53;4970551;28;20194;-78
2023/06/24 11:17:02;;;;;;;4.17;3.73;;;;;;;32.49;23.38;100034.91;4958639;28;20491;-78
2023/06/24 11:19:29;;;;;;;3.90;2.90;;;;;;;32.43;23.63;100030.34;4970037;28;20448;-79
2023/06/24 11:21:54;;;;;;;2.97;2.70;;;;;;;32.42;23.45;100025.97;4971385;28;20463;-79
2023/06/24 11:24:19;;;;;;;3.67;2.87;;;;;;;32.42;23.80;100018.63;4969229;28;20881;-79
2023/06/24 11:26:45;;;;;;;5.03;3.20;;;;;;;32.48;23.99;100019.63;4966983;28;20234;-80